Time;durP1;ratioP1;P1;durP2;ratioP2;P2;SDS_P1;SDS_P2;PMS_P1;PMS_P2;Temp;Humidity;BMP_temperature;BMP_pressure;BME280_temperature;BME280_humidity;BME280_pressure;Samples;Min_cycle;Max_cycle;Signal;HPM_P1;HPM_P2
2022/11/07 00:02:03;;;;;;;103.00;64.85;;;10.60;99.90;;;;;;5080352;28;20480;-77
2022/11/07 00:04:31;;;;;;;108.70;68.22;;;10.60;99.90;;;;;;5082533;28;20040;-75
2022/11/07 00:06:59;;;;;;;109.38;67.50;;;10.60;99.90;;;;;;5081661;28;20125;-77
2022/11/07 00:09:27;;;;;;;105.00;67.57;;;10.50;99.90;;;;;;5081196;28;20044;-76
2022/11/07 00:11:55;;;;;;;107.15;68.43;;;10.50;99.90;;;;;;5080622;28;20493;-76
2022/11/07 00:14:24;;;;;;;103.70;66.18;;;10.50;99.90;;;;;;5082390;28;20051;-77
2022/11/07 00:16:51;;;;;;;98.18;63.92;;;10.50;99.90;;;;;;5081612;28;20044;-76
2022/11/07 00:19:20;;;;;;;100.25;61.92;;;10.50;99.90;;;;;;5082150;28;20106;-73
2022/11/07 00:21:49;;;;;;;94.40;60.17;;;10.50;99.90;;;;;;5081322;28;20062;-76
2022/11/07 00:24:18;;;;;;;99.28;60.83;;;10.50;99.90;;;;;;5082602;28;20526;-76
2022/11/07 00:26:46;;;;;;;98.50;62.28;;;10.50;99.90;;;;;;5100800;28;20040;-76
2022/11/07 00:29:14;;;;;;;105.78;64.97;;;10.60;99.90;;;;;;5084187;28;20094;-75
2022/11/07 00:31:43;;;;;;;105.00;65.32;;;10.60;99.90;;;;;;5101194;28;20117;-76
2022/11/07 00:34:11;;;;;;;99.10;63.10;;;10.60;99.90;;;;;;5101203;28;20067;-76
2022/11/07 00:36:38;;;;;;;102.25;63.22;;;10.60;99.90;;;;;;5101520;28;20054;-77
2022/11/07 00:39:06;;;;;;;101.05;60.58;;;10.60;99.90;;;;;;5100434;28;20040;-77
2022/11/07 00:41:33;;;;;;;95.97;58.15;;;10.60;99.90;;;;;;5101056;28;20063;-77
2022/11/07 00:44:00;;;;;;;96.15;58.58;;;10.60;99.90;;;;;;5101252;28;20504;-77
2022/11/07 00:46:28;;;;;;;98.43;59.10;;;10.60;99.90;;;;;;5101974;28;20075;-77
2022/11/07 00:48:57;;;;;;;91.65;58.53;;;10.60;99.90;;;;;;5100434;28;20040;-77
2022/11/07 00:51:26;;;;;;;89.97;56.78;;;10.50;99.90;;;;;;5100343;28;20044;-76
2022/11/07 00:53:54;;;;;;;91.82;55.97;;;10.50;99.90;;;;;;5101201;28;20047;-76
2022/11/07 00:56:23;;;;;;;94.68;57.08;;;10.50;99.90;;;;;;5101110;28;20499;-78
2022/11/07 00:58:54;;;;;;;89.03;54.28;;;10.60;99.90;;;;;;5101093;28;20047;-75
2022/11/07 01:01:23;;;;;;;90.97;55.75;;;10.60;99.90;;;;;;5100928;28;20032;-75
2022/11/07 01:06:48;;;;;;;86.65;49.97;;;10.60;99.90;;;;;;4999247;28;20038;-74
2022/11/07 01:09:18;;;;;;;81.72;50.05;;;10.70;99.90;;;;;;5077274;28;20043;-75
2022/11/07 01:11:46;;;;;;;80.70;48.72;;;10.70;99.90;;;;;;5100435;28;20035;-77
2022/11/07 01:14:15;;;;;;;79.75;48.28;;;10.70;99.90;;;;;;5100909;28;20048;-75
2022/11/07 01:16:43;;;;;;;83.13;47.88;;;10.60;99.90;;;;;;5100659;28;20544;-74
2022/11/07 01:19:11;;;;;;;81.70;47.33;;;10.60;99.90;;;;;;5098879;28;20114;-76
2022/11/07 01:21:39;;;;;;;76.63;45.08;;;10.70;99.90;;;;;;5098562;28;20118;-77
2022/11/07 01:24:10;;;;;;;78.40;47.50;;;10.70;99.90;;;;;;5100839;28;20452;-77
2022/11/07 01:26:38;;;;;;;80.05;46.95;;;10.70;99.90;;;;;;5079216;28;20035;-77
2022/11/07 01:29:06;;;;;;;78.53;45.67;;;10.70;99.90;;;;;;5080725;28;20040;-76
2022/11/07 01:31:33;;;;;;;80.53;44.35;;;10.70;99.90;;;;;;5080537;28;20100;-77
2022/11/07 01:34:01;;;;;;;80.75;46.95;;;10.80;99.90;;;;;;5078887;28;20067;-75
2022/11/07 01:36:29;;;;;;;81.10;45.85;;;10.80;99.90;;;;;;5079434;28;20040;-76
2022/11/07 01:38:56;;;;;;;79.35;45.47;;;10.90;99.90;;;;;;5079363;28;20502;-76
2022/11/07 01:41:27;;;;;;;75.05;45.60;;;10.90;99.90;;;;;;5079335;28;20048;-77
2022/11/07 01:43:58;;;;;;;76.28;46.17;;;10.90;99.90;;;;;;5080227;28;20055;-74
2022/11/07 01:46:30;;;;;;;73.22;45.35;;;10.90;99.90;;;;;;5078895;28;20079;-77
2022/11/07 01:49:05;;;;;;;81.65;47.08;;;10.90;99.90;;;;;;5079552;28;20047;-75
2022/11/07 01:51:37;;;;;;;80.63;49.10;;;10.90;99.90;;;;;;5062901;28;20552;-77
2022/11/07 01:54:05;;;;;;;94.25;53.38;;;10.90;99.90;;;;;;5080515;28;20548;-77
2022/11/07 01:56:37;;;;;;;102.72;54.47;;;10.80;99.90;;;;;;5061145;28;20135;-78
2022/11/07 01:59:06;;;;;;;93.90;51.40;;;10.70;99.90;;;;;;5079189;28;20040;-77
2022/11/07 02:01:33;;;;;;;97.40;53.50;;;10.70;99.90;;;;;;5078297;28;20036;-77
2022/11/07 02:04:02;;;;;;;97.22;49.53;;;10.70;99.90;;;;;;5081121;28;20044;-77
2022/11/07 02:06:39;;;;;;;85.30;49.22;;;10.80;99.90;;;;;;5079240;28;20435;-77
2022/11/07 02:09:06;;;;;;;87.18;52.20;;;10.80;99.90;;;;;;5079252;28;20041;-75
2022/11/07 02:11:35;;;;;;;81.55;50.38;;;10.80;99.90;;;;;;5079926;28;20059;-76
2022/11/07 02:14:02;;;;;;;89.50;51.45;;;10.80;99.90;;;;;;5078680;28;20054;-77
2022/11/07 02:16:31;;;;;;;83.50;50.78;;;10.80;99.90;;;;;;5078315;28;20034;-76
2022/11/07 02:18:59;;;;;;;87.82;51.35;;;10.80;99.90;;;;;;5078027;28;20120;-75
2022/11/07 02:21:34;;;;;;;85.50;51.00;;;10.90;99.90;;;;;;5077879;28;20045;-78
2022/11/07 02:24:14;;;;;;;89.07;49.70;;;10.90;99.90;;;;;;5081003;28;20036;-77
2022/11/07 02:26:43;;;;;;;75.07;47.38;;;10.80;99.90;;;;;;5101223;22;20093;-72
2022/11/07 02:29:12;;;;;;;86.22;48.97;;;10.90;99.90;;;;;;5072310;28;20044;-73
2022/11/07 02:31:39;;;;;;;81.70;48.50;;;10.90;99.90;;;;;;5089335;28;20044;-73
2022/11/07 02:34:06;;;;;;;86.18;50.67;;;10.90;99.90;;;;;;5090421;28;20098;-73
2022/11/07 02:36:33;;;;;;;78.20;45.30;;;10.90;99.90;;;;;;5099625;28;20410;-74
2022/11/07 02:39:01;;;;;;;81.55;43.70;;;10.90;99.90;;;;;;5100516;28;20040;-73
2022/11/07 02:41:34;;;;;;;79.22;46.08;;;10.90;99.90;;;;;;5099405;28;20040;-73
2022/11/07 02:44:06;;;;;;;82.40;47.55;;;10.90;99.90;;;;;;5098997;28;20084;-72
2022/11/07 02:46:33;;;;;;;88.05;48.38;;;10.80;99.90;;;;;;5099158;28;20039;-73
2022/11/07 02:49:02;;;;;;;86.68;48.53;;;10.80;99.90;;;;;;5101197;28;20039;-73
2022/11/07 02:51:29;;;;;;;92.78;52.60;;;10.80;99.90;;;;;;5098811;28;20048;-73
2022/11/07 02:53:57;;;;;;;91.30;51.33;;;10.80;99.90;;;;;;5099169;28;20043;-73
2022/11/07 02:56:25;;;;;;;93.18;49.53;;;10.80;99.90;;;;;;5099083;28;20031;-74
2022/11/07 02:58:53;;;;;;;91.65;50.45;;;10.80;99.90;;;;;;5102631;28;20040;-74
2022/11/07 03:01:22;;;;;;;87.72;49.78;;;10.70;99.90;;;;;;5104049;28;20552;-73
2022/11/07 03:03:50;;;;;;;93.35;49.63;;;10.70;99.90;;;;;;5102022;28;20048;-73
2022/11/07 03:06:20;;;;;;;84.32;48.80;;;10.60;99.90;;;;;;5085104;28;20610;-74
2022/11/07 03:08:48;;;;;;;77.70;46.47;;;10.70;99.90;;;;;;5102285;28;20098;-74
2022/11/07 03:11:18;;;;;;;79.00;45.65;;;10.70;99.90;;;;;;5104462;28;20094;-74
2022/11/07 03:13:46;;;;;;;76.68;46.42;;;10.70;99.90;;;;;;5103154;28;20036;-73
2022/11/07 03:16:17;;;;;;;82.28;47.15;;;10.80;99.90;;;;;;5102519;28;20128;-73
2022/11/07 03:18:44;;;;;;;79.97;47.30;;;10.80;99.90;;;;;;5099875;28;20048;-73
2022/11/07 03:21:12;;;;;;;84.40;47.03;;;10.80;99.90;;;;;;5102781;28;20119;-72
2022/11/07 03:23:39;;;;;;;84.22;47.67;;;10.80;99.90;;;;;;5083422;28;20056;-73
2022/11/07 03:26:07;;;;;;;74.38;45.40;;;10.80;99.90;;;;;;5089214;28;20462;-73
2022/11/07 03:28:34;;;;;;;82.40;46.03;;;10.80;99.90;;;;;;5102601;28;20036;-73
2022/11/07 03:31:02;;;;;;;81.53;47.15;;;10.80;99.90;;;;;;5101947;28;20060;-73
2022/11/07 03:33:32;;;;;;;75.90;44.85;;;10.80;99.90;;;;;;5092567;28;20102;-74
2022/11/07 03:35:59;;;;;;;73.03;44.45;;;10.80;99.90;;;;;;5109744;28;20399;-72
2022/11/07 03:38:26;;;;;;;72.22;42.78;;;10.80;99.90;;;;;;5113188;28;20035;-74
2022/11/07 03:40:54;;;;;;;82.65;47.15;;;10.80;99.90;;;;;;5105015;28;20078;-73
2022/11/07 03:43:21;;;;;;;92.03;50.65;;;10.80;99.90;;;;;;5103323;28;20130;-74
2022/11/07 03:45:48;;;;;;;79.25;45.80;;;10.80;99.90;;;;;;5105521;28;20040;-74
2022/11/07 03:48:16;;;;;;;77.82;45.55;;;10.80;99.90;;;;;;5101666;28;20040;-73
2022/11/07 03:50:45;;;;;;;80.35;45.97;;;10.80;99.90;;;;;;5111641;28;20042;-73
2022/11/07 03:53:12;;;;;;;78.68;45.35;;;10.80;99.90;;;;;;5119152;28;20047;-72
2022/11/07 03:55:42;;;;;;;78.88;44.63;;;10.80;99.90;;;;;;5120731;28;20063;-73
2022/11/07 03:58:09;;;;;;;80.00;44.33;;;10.80;99.90;;;;;;5117079;28;20040;-74
2022/11/07 04:00:36;;;;;;;75.32;44.88;;;10.80;99.90;;;;;;5109512;28;20040;-72
2022/11/07 04:03:03;;;;;;;76.22;43.70;;;10.80;99.90;;;;;;5103131;28;20052;-74
2022/11/07 04:05:31;;;;;;;79.03;46.67;;;10.80;99.90;;;;;;5102528;28;20106;-74
2022/11/07 04:07:59;;;;;;;78.97;47.38;;;10.80;99.90;;;;;;5115431;28;20596;-74
2022/11/07 04:10:27;;;;;;;83.68;49.30;;;10.80;99.90;;;;;;5100209;28;20068;-73
2022/11/07 04:18:20;;;;;;;101.15;57.17;;;10.90;99.90;;;;;;5091675;28;20059;-74
2022/11/07 04:20:48;;;;;;;97.90;57.10;;;11.00;99.90;;;;;;5092579;28;20039;-75
2022/11/07 04:23:16;;;;;;;97.10;55.67;;;10.90;99.90;;;;;;5101517;28;20110;-74
2022/11/07 04:28:28;;;;;;;93.30;52.15;;;11.00;99.90;;;;;;5102298;28;20040;-73
2022/11/07 04:30:55;;;;;;;87.88;51.28;;;11.00;99.90;;;;;;5101769;28;20128;-74
2022/11/07 04:33:23;;;;;;;86.88;51.45;;;11.00;99.90;;;;;;5100292;28;20040;-73
2022/11/07 04:35:50;;;;;;;89.47;50.65;;;11.10;99.90;;;;;;5101364;28;20044;-73
2022/11/07 04:38:19;;;;;;;91.40;51.30;;;11.00;99.90;;;;;;5101173;28;20031;-72
2022/11/07 04:40:53;;;;;;;90.43;53.55;;;11.00;99.90;;;;;;5100537;28;20162;-73
2022/11/07 04:43:20;;;;;;;92.30;52.75;;;11.00;99.90;;;;;;5101555;28;20043;-72
2022/11/07 04:45:47;;;;;;;79.55;49.83;;;11.00;99.90;;;;;;5099682;28;20047;-72
2022/11/07 04:48:15;;;;;;;85.50;49.15;;;11.00;99.90;;;;;;5102259;28;20089;-74
2022/11/07 04:50:42;;;;;;;83.15;49.08;;;11.00;99.90;;;;;;5090195;28;20039;-73
2022/11/07 04:53:12;;;;;;;84.50;50.90;;;11.00;99.90;;;;;;5101251;28;20182;-73
2022/11/07 04:55:41;;;;;;;87.90;50.80;;;11.00;99.90;;;;;;5101060;28;20126;-73
2022/11/07 04:58:08;;;;;;;82.07;49.20;;;11.00;99.90;;;;;;5102010;28;20036;-73
2022/11/07 05:00:36;;;;;;;80.13;48.35;;;11.00;99.90;;;;;;5099856;28;20046;-72
2022/11/07 05:03:03;;;;;;;86.95;51.85;;;11.00;99.90;;;;;;5101405;28;20032;-72
2022/11/07 05:05:30;;;;;;;76.72;49.22;;;10.90;99.90;;;;;;5091202;28;20143;-74
2022/11/07 05:07:58;;;;;;;82.75;53.47;;;11.00;99.90;;;;;;5100578;28;20581;-74
2022/11/07 05:10:27;;;;;;;85.07;53.08;;;11.00;99.90;;;;;;5100713;28;20040;-73
2022/11/07 05:12:57;;;;;;;84.45;53.05;;;11.00;99.90;;;;;;5101067;28;20048;-73
2022/11/07 05:15:24;;;;;;;88.18;53.13;;;11.00;99.90;;;;;;5091760;28;20520;-73
2022/11/07 05:17:51;;;;;;;84.85;50.72;;;11.00;99.90;;;;;;5100628;28;20051;-74
2022/11/07 05:20:29;;;;;;;82.50;47.78;;;11.10;99.90;;;;;;5100408;28;20648;-73
2022/11/07 05:23:16;;;;;;;82.22;47.97;;;11.10;99.90;;;;;;5100923;28;20094;-73
2022/11/07 05:25:45;;;;;;;82.50;49.55;;;11.10;99.90;;;;;;5100782;28;20055;-73
2022/11/07 05:28:15;;;;;;;80.22;46.53;;;11.10;99.90;;;;;;5100584;28;20040;-72
2022/11/07 05:30:44;;;;;;;80.82;48.10;;;11.10;99.90;;;;;;5098610;28;20040;-73
2022/11/07 05:33:13;;;;;;;79.82;46.50;;;11.10;99.90;;;;;;5101539;28;20070;-74
2022/11/07 05:35:40;;;;;;;83.07;48.90;;;11.10;99.90;;;;;;5088685;28;20101;-74
2022/11/07 05:38:07;;;;;;;83.38;46.88;;;11.10;99.90;;;;;;5115646;28;20483;-73
2022/11/07 05:40:36;;;;;;;77.50;45.78;;;11.10;99.90;;;;;;5108193;28;20082;-74
2022/11/07 05:43:06;;;;;;;97.00;49.33;;;11.10;99.90;;;;;;5108816;28;20040;-75
2022/11/07 05:45:37;;;;;;;79.82;49.05;;;11.10;99.90;;;;;;5100901;28;20502;-74
2022/11/07 05:48:06;;;;;;;93.90;52.53;;;11.10;99.90;;;;;;5100883;28;20059;-74
2022/11/07 05:50:34;;;;;;;98.65;52.33;;;11.20;99.90;;;;;;5100776;28;20040;-74
2022/11/07 05:53:01;;;;;;;99.10;56.85;;;11.10;99.90;;;;;;5098145;28;20039;-74
2022/11/07 05:55:29;;;;;;;95.10;54.58;;;11.10;99.90;;;;;;5102150;28;20108;-73
2022/11/07 05:57:56;;;;;;;99.95;54.85;;;11.20;99.90;;;;;;5102153;28;20043;-73
2022/11/07 06:00:24;;;;;;;90.30;52.45;;;11.20;99.90;;;;;;5100641;28;20035;-74
2022/11/07 06:02:59;;;;;;;93.25;49.28;;;11.20;99.90;;;;;;5099739;28;20040;-73
2022/11/07 06:05:27;;;;;;;85.97;51.50;;;11.20;99.90;;;;;;5099804;28;20630;-73
2022/11/07 06:07:54;;;;;;;83.28;49.65;;;11.20;99.90;;;;;;5100307;28;20640;-74
2022/11/07 06:10:22;;;;;;;95.10;51.50;;;11.30;99.90;;;;;;5097772;28;20098;-72
2022/11/07 06:12:58;;;;;;;84.57;50.00;;;11.30;99.90;;;;;;5100578;28;20040;-74
2022/11/07 06:15:26;;;;;;;83.10;48.30;;;11.20;99.90;;;;;;5100316;28;20176;-74
2022/11/07 06:17:55;;;;;;;84.35;49.55;;;11.30;99.90;;;;;;5099978;28;20047;-74
2022/11/07 06:20:22;;;;;;;78.20;49.20;;;11.30;99.90;;;;;;5101033;28;20040;-75
2022/11/07 06:22:49;;;;;;;79.78;48.63;;;11.20;99.90;;;;;;5099663;28;20102;-73
2022/11/07 06:25:17;;;;;;;79.13;47.70;;;11.20;99.90;;;;;;5099128;28;20511;-73
2022/11/07 06:27:44;;;;;;;81.10;48.67;;;11.30;99.90;;;;;;5100120;28;20044;-72
2022/11/07 06:30:12;;;;;;;86.97;48.53;;;11.30;99.90;;;;;;5098970;28;20105;-72
2022/11/07 06:32:43;;;;;;;81.97;49.75;;;11.30;99.90;;;;;;5099830;28;20036;-73
2022/11/07 06:35:12;;;;;;;81.93;51.20;;;11.40;99.90;;;;;;5081054;28;20044;-73
2022/11/07 06:37:39;;;;;;;86.57;52.30;;;11.50;99.90;;;;;;5099178;28;20071;-74
2022/11/07 06:40:08;;;;;;;82.13;50.17;;;11.60;99.90;;;;;;5098840;28;20032;-74
2022/11/07 06:42:35;;;;;;;76.53;50.30;;;11.60;99.90;;;;;;5098537;28;20067;-73
2022/11/07 06:45:02;;;;;;;76.55;49.58;;;11.60;99.90;;;;;;5098116;28;20040;-75
2022/11/07 06:47:30;;;;;;;70.10;46.22;;;11.60;99.90;;;;;;5099374;28;20082;-74
2022/11/07 06:49:57;;;;;;;85.25;50.92;;;11.70;99.90;;;;;;5098877;28;20074;-74
2022/11/07 06:52:26;;;;;;;78.10;50.40;;;11.70;99.90;;;;;;5098182;28;20052;-73
2022/11/07 06:54:53;;;;;;;80.75;52.17;;;11.70;99.90;;;;;;5079617;28;20131;-73
2022/11/07 06:57:20;;;;;;;80.00;49.50;;;11.60;99.90;;;;;;5099089;28;20040;-73
2022/11/07 06:59:48;;;;;;;90.82;54.03;;;11.70;99.90;;;;;;5099196;28;20088;-74
2022/11/07 07:02:15;;;;;;;98.57;56.42;;;11.70;99.90;;;;;;5099341;28;20502;-74
2022/11/07 07:04:42;;;;;;;93.18;55.20;;;11.70;99.90;;;;;;5099563;28;20071;-72
2022/11/07 07:07:10;;;;;;;89.28;54.28;;;11.70;99.90;;;;;;5081549;28;20071;-74
2022/11/07 07:09:40;;;;;;;87.60;53.55;;;11.80;99.90;;;;;;5098832;28;20040;-74
2022/11/07 07:12:09;;;;;;;77.18;49.95;;;11.80;99.90;;;;;;5098485;28;20095;-73
2022/11/07 07:14:37;;;;;;;83.85;52.55;;;11.80;99.90;;;;;;5098148;28;20044;-74
2022/11/07 07:17:04;;;;;;;86.70;52.20;;;11.70;99.90;;;;;;5099272;28;20482;-74
2022/11/07 07:19:31;;;;;;;76.53;48.75;;;11.80;99.90;;;;;;5097683;28;20039;-73
2022/11/07 07:22:00;;;;;;;84.90;48.58;;;11.80;99.90;;;;;;5099080;28;20125;-72
2022/11/07 07:24:27;;;;;;;79.90;51.53;;;11.70;99.90;;;;;;5080706;28;20166;-72
2022/11/07 07:26:56;;;;;;;113.85;51.58;;;11.80;99.90;;;;;;5101200;28;20056;-73
2022/11/07 07:29:23;;;;;;;85.45;48.92;;;11.80;99.90;;;;;;5098348;28;20041;-73
2022/11/07 07:31:51;;;;;;;80.30;49.97;;;11.90;99.90;;;;;;5098417;28;20094;-73
2022/11/07 07:34:18;;;;;;;82.68;49.72;;;11.90;99.90;;;;;;5098491;28;20040;-73
2022/11/07 07:36:45;;;;;;;81.70;50.08;;;11.90;99.90;;;;;;5098711;28;20032;-72
2022/11/07 07:39:12;;;;;;;76.18;46.70;;;11.90;99.90;;;;;;5100157;28;20158;-73
2022/11/07 07:41:40;;;;;;;70.70;46.15;;;12.00;99.90;;;;;;5097051;28;20097;-73
2022/11/07 07:44:08;;;;;;;71.43;44.60;;;12.00;99.90;;;;;;5105396;28;20112;-74
2022/11/07 07:46:36;;;;;;;69.63;43.45;;;12.10;99.90;;;;;;5101023;28;20116;-74
2022/11/07 07:49:03;;;;;;;62.40;40.15;;;12.20;99.90;;;;;;5100432;28;20052;-74
2022/11/07 07:51:30;;;;;;;68.75;43.22;;;12.30;99.90;;;;;;5102740;28;20097;-74
2022/11/07 07:53:57;;;;;;;64.22;42.50;;;12.30;99.90;;;;;;5102738;28;20044;-73
2022/11/07 07:56:25;;;;;;;65.18;42.35;;;12.30;99.90;;;;;;5083600;28;20314;-75
2022/11/07 07:58:52;;;;;;;67.10;41.63;;;12.40;99.90;;;;;;5102730;28;20042;-74
2022/11/07 08:01:21;;;;;;;63.53;40.10;;;12.50;99.90;;;;;;5100706;28;20465;-74
2022/11/07 08:03:48;;;;;;;68.78;40.80;;;12.60;99.90;;;;;;5100516;28;20044;-74
2022/11/07 08:06:16;;;;;;;64.55;37.53;;;12.60;99.90;;;;;;5100647;28;20428;-74
2022/11/07 08:08:43;;;;;;;56.58;36.88;;;12.70;99.90;;;;;;5101852;28;20047;-74
2022/11/07 08:11:11;;;;;;;64.35;41.50;;;12.60;99.90;;;;;;5101361;28;20040;-73
2022/11/07 08:13:38;;;;;;;66.05;40.45;;;12.60;99.90;;;;;;5102805;28;20112;-74
2022/11/07 08:16:08;;;;;;;71.38;40.53;;;12.60;99.90;;;;;;5102307;28;20090;-73
2022/11/07 08:18:38;;;;;;;66.45;41.20;;;12.60;99.90;;;;;;5101746;28;20410;-73
2022/11/07 08:21:06;;;;;;;61.78;39.25;;;12.70;99.90;;;;;;5100668;28;20048;-73
2022/11/07 08:23:34;;;;;;;53.92;33.58;;;12.70;99.90;;;;;;5102029;28;20117;-73
2022/11/07 08:26:03;;;;;;;56.22;35.75;;;12.80;99.90;;;;;;5086217;28;20052;-73
2022/11/07 08:28:32;;;;;;;58.85;35.17;;;12.80;99.90;;;;;;5080148;28;20040;-74
2022/11/07 08:31:01;;;;;;;55.92;34.05;;;12.80;99.90;;;;;;5098475;28;20043;-73
2022/11/07 08:33:29;;;;;;;58.00;36.13;;;12.80;99.90;;;;;;5099296;28;20044;-73
2022/11/07 08:36:00;;;;;;;62.35;35.92;;;12.70;99.90;;;;;;5083351;28;20097;-73
2022/11/07 08:38:28;;;;;;;58.08;31.10;;;12.60;99.90;;;;;;5099781;28;20038;-73
2022/11/07 08:40:55;;;;;;;59.50;33.97;;;12.60;99.90;;;;;;5101015;28;20036;-74
2022/11/07 08:43:23;;;;;;;61.05;37.08;;;12.50;99.90;;;;;;5099610;28;20600;-75
2022/11/07 08:45:51;;;;;;;60.17;38.45;;;12.50;99.90;;;;;;5097574;28;20090;-75
2022/11/07 08:48:18;;;;;;;63.30;37.67;;;12.60;99.90;;;;;;5098010;28;20047;-74
2022/11/07 08:50:46;;;;;;;58.78;34.40;;;12.70;99.90;;;;;;5098699;28;20098;-74
2022/11/07 08:53:14;;;;;;;68.97;35.15;;;12.80;99.90;;;;;;5098143;28;20092;-76
2022/11/07 08:55:42;;;;;;;56.58;32.58;;;12.90;99.90;;;;;;5098213;28;20070;-75
2022/11/07 08:58:09;;;;;;;65.90;34.03;;;12.80;99.90;;;;;;5100872;28;20040;-76
2022/11/07 09:00:37;;;;;;;68.75;34.83;;;12.80;99.90;;;;;;5100280;28;20055;-75
2022/11/07 09:03:05;;;;;;;72.80;35.13;;;12.80;99.90;;;;;;5099343;28;20040;-75
2022/11/07 09:05:33;;;;;;;95.75;40.30;;;12.80;99.90;;;;;;5102014;28;20118;-74
2022/11/07 09:08:00;;;;;;;104.07;42.78;;;12.90;99.90;;;;;;5102587;28;20042;-78
2022/11/07 09:10:29;;;;;;;114.45;47.13;;;12.90;99.90;;;;;;5101167;28;20035;-76
2022/11/07 09:12:56;;;;;;;143.70;52.35;;;13.00;99.90;;;;;;5105266;28;20100;-74
2022/11/07 09:15:23;;;;;;;151.73;54.83;;;13.10;99.90;;;;;;5117264;28;20066;-76
2022/11/07 09:17:51;;;;;;;207.30;68.57;;;13.20;99.90;;;;;;5102368;28;20040;-75
2022/11/07 09:20:18;;;;;;;245.93;79.32;;;13.30;99.90;;;;;;5100205;28;20048;-74
2022/11/07 09:22:45;;;;;;;208.57;70.25;;;13.40;99.90;;;;;;5101803;28;20063;-73
2022/11/07 09:25:13;;;;;;;200.77;70.18;;;13.50;99.90;;;;;;5108289;28;20529;-76
2022/11/07 09:27:42;;;;;;;195.70;69.55;;;13.60;99.90;;;;;;5098756;28;20046;-74
2022/11/07 09:30:11;;;;;;;196.95;69.47;;;13.70;99.90;;;;;;5081556;28;20044;-74
2022/11/07 09:32:38;;;;;;;168.93;64.28;;;13.80;99.90;;;;;;5100562;28;20126;-73
2022/11/07 09:35:06;;;;;;;168.27;64.60;;;13.90;99.90;;;;;;5099144;28;20036;-75
2022/11/07 09:37:34;;;;;;;156.07;59.05;;;13.80;99.90;;;;;;5101133;28;20036;-74
2022/11/07 09:40:01;;;;;;;145.02;55.50;;;13.90;99.90;;;;;;5098906;28;20059;-74
2022/11/07 09:42:40;;;;;;;145.27;55.35;;;14.00;99.90;;;;;;5099015;28;20488;-74
2022/11/07 09:45:13;;;;;;;123.07;50.03;;;14.00;99.90;;;;;;5099270;28;20126;-74
2022/11/07 09:47:44;;;;;;;128.70;51.20;;;14.00;99.90;;;;;;5082152;28;20074;-75
2022/11/07 09:50:14;;;;;;;114.72;49.60;;;13.80;99.90;;;;;;5098208;28;20523;-74
2022/11/07 09:52:48;;;;;;;116.03;49.75;;;13.70;99.90;;;;;;5100665;28;20040;-75
2022/11/07 09:55:21;;;;;;;121.50;48.97;;;13.60;99.90;;;;;;5099985;28;20098;-74
2022/11/07 09:57:50;;;;;;;116.95;49.20;;;13.70;99.90;;;;;;5099638;28;20081;-75
2022/11/07 10:00:20;;;;;;;120.95;49.17;;;13.80;99.90;;;;;;5079315;28;20039;-75
2022/11/07 10:02:50;;;;;;;119.20;49.33;;;13.80;99.90;;;;;;5097621;28;20161;-75
2022/11/07 10:05:28;;;;;;;109.68;47.28;;;13.90;99.90;;;;;;5098446;28;20044;-75
2022/11/07 10:08:03;;;;;;;113.13;47.50;;;14.10;99.90;;;;;;5098761;28;20043;-75
2022/11/07 10:10:39;;;;;;;113.82;48.05;;;14.10;99.90;;;;;;5100725;28;20097;-74
2022/11/07 10:13:16;;;;;;;;;;;14.30;99.90;;;;;;5100447;28;20399;-74
2022/11/07 10:15:58;;;;;;;111.82;47.35;;;14.50;99.90;;;;;;5099687;28;19923;-74
2022/11/07 10:18:36;;;;;;;108.97;46.17;;;14.50;99.90;;;;;;5112360;28;20560;-75
2022/11/07 10:21:09;;;;;;;102.03;44.20;;;14.20;99.90;;;;;;5112362;28;20055;-75
2022/11/07 10:23:51;;;;;;;107.47;47.50;;;14.00;99.90;;;;;;5108557;28;20494;-75
2022/11/07 10:26:22;;;;;;;107.32;47.97;;;13.70;99.90;;;;;;5097429;28;20044;-74
2022/11/07 10:28:57;;;;;;;118.05;47.60;;;13.50;99.90;;;;;;5097491;28;20059;-74
2022/11/07 10:31:32;;;;;;;114.97;47.53;;;13.40;99.90;;;;;;5098707;28;20040;-75
2022/11/07 10:34:05;;;;;;;118.47;49.80;;;13.40;99.90;;;;;;5101327;28;20068;-74
2022/11/07 10:36:33;;;;;;;135.48;52.95;;;13.40;99.90;;;;;;5097631;28;20130;-73
2022/11/07 10:39:01;;;;;;;120.18;51.85;;;13.40;99.90;;;;;;5100505;28;20043;-74
2022/11/07 10:41:30;;;;;;;112.20;47.42;;;13.40;99.90;;;;;;5076188;28;20113;-74
2022/11/07 10:44:00;;;;;;;103.57;46.80;;;13.40;99.90;;;;;;5100585;28;20086;-74
2022/11/07 10:46:40;;;;;;;102.05;44.08;;;13.40;99.90;;;;;;5079593;28;20570;-75
2022/11/07 10:49:19;;;;;;;105.50;43.92;;;13.30;99.90;;;;;;5081300;28;20040;-75
2022/11/07 10:51:47;;;;;;;105.65;43.25;;;13.30;99.90;;;;;;5099975;28;20487;-74
2022/11/07 10:54:26;;;;;;;101.05;42.67;;;13.30;99.90;;;;;;5099506;28;20088;-74
2022/11/07 10:57:04;;;;;;;87.65;40.50;;;13.40;99.90;;;;;;5080179;28;20040;-74
2022/11/07 10:59:33;;;;;;;95.07;45.15;;;13.50;99.90;;;;;;5097208;28;20056;-75
2022/11/07 11:02:04;;;;;;;88.78;40.60;;;13.60;99.90;;;;;;5093293;28;20032;-75
2022/11/07 11:04:32;;;;;;;91.90;42.00;;;13.60;99.90;;;;;;5102388;28;20074;-74
2022/11/07 11:07:02;;;;;;;94.25;41.22;;;13.70;99.90;;;;;;5112976;28;20070;-74
2022/11/07 11:09:31;;;;;;;91.85;39.72;;;13.70;99.90;;;;;;5105425;28;20056;-74
2022/11/07 11:12:03;;;;;;;88.43;41.58;;;13.90;99.90;;;;;;5101293;28;20097;-74
2022/11/07 11:14:30;;;;;;;96.22;42.92;;;14.00;99.90;;;;;;5091560;28;20048;-75
2022/11/07 11:16:58;;;;;;;96.57;41.60;;;14.00;99.90;;;;;;5080339;28;20513;-75
2022/11/07 11:19:30;;;;;;;93.88;42.42;;;14.10;99.90;;;;;;5109848;28;20340;-75
2022/11/07 11:21:59;;;;;;;100.43;45.38;;;14.10;99.90;;;;;;5092850;28;20048;-75
2022/11/07 11:24:34;;;;;;;96.57;43.20;;;14.10;99.90;;;;;;5092091;28;20040;-73
2022/11/07 11:27:07;;;;;;;84.85;42.00;;;14.00;99.90;;;;;;5102162;28;20063;-73
2022/11/07 11:29:41;;;;;;;77.78;37.78;;;14.10;99.90;;;;;;5101082;28;20039;-75
2022/11/07 11:32:20;;;;;;;75.40;36.30;;;14.10;99.90;;;;;;5092533;28;20051;-74
2022/11/07 11:34:57;;;;;;;75.38;36.08;;;14.00;99.90;;;;;;5100488;28;20043;-75
2022/11/07 11:37:27;;;;;;;69.18;34.17;;;13.80;99.90;;;;;;5102137;28;20040;-75
2022/11/07 11:40:08;;;;;;;72.38;35.10;;;13.80;99.90;;;;;;5102357;28;20118;-74
2022/11/07 11:42:45;;;;;;;63.00;33.97;;;13.70;99.90;;;;;;5091485;28;20113;-74
2022/11/07 11:45:17;;;;;;;69.82;36.88;;;13.70;99.90;;;;;;5102264;28;20036;-74
2022/11/07 11:47:50;;;;;;;65.47;33.65;;;13.60;99.90;;;;;;5102304;28;20495;-74
2022/11/07 11:50:24;;;;;;;72.15;37.45;;;13.60;99.90;;;;;;5099765;28;20499;-75
2022/11/07 11:52:51;;;;;;;75.93;35.58;;;13.70;99.90;;;;;;5102401;28;20035;-74
2022/11/07 11:55:23;;;;;;;73.30;39.60;;;13.70;99.90;;;;;;5102983;28;20039;-74
2022/11/07 11:58:00;;;;;;;70.88;34.58;;;13.80;99.90;;;;;;5103911;28;20368;-74
2022/11/07 12:00:27;;;;;;;65.85;35.03;;;13.90;99.90;;;;;;5102024;28;20084;-73
2022/11/07 12:03:40;;;;;;;62.45;35.50;;;13.90;99.90;;;;;;5103154;28;20040;-78
2022/11/07 12:06:15;;;;;;;67.47;36.70;;;13.90;99.90;;;;;;5059841;28;20170;-79
2022/11/07 12:09:09;;;;;;;66.53;37.60;;;13.90;99.90;;;;;;5102928;28;20084;-83
2022/11/07 12:11:47;;;;;;;70.28;38.13;;;13.90;99.90;;;;;;5105337;28;20044;-79
2022/11/07 12:14:47;;;;;;;66.03;39.17;;;14.00;99.90;;;;;;5102938;28;20081;-74
2022/11/07 12:17:21;;;;;;;63.72;36.90;;;14.00;99.90;;;;;;5095681;28;20098;-73
2022/11/07 12:19:55;;;;;;;57.47;33.83;;;13.90;99.90;;;;;;5101144;28;20089;-72
2022/11/07 12:22:35;;;;;;;56.70;33.35;;;13.90;99.90;;;;;;5102040;28;20032;-75
2022/11/07 12:25:14;;;;;;;49.97;31.92;;;13.90;99.90;;;;;;5106587;28;20580;-74
2022/11/07 12:27:51;;;;;;;53.13;32.45;;;13.80;99.90;;;;;;5108858;28;20044;-73
2022/11/07 12:30:22;;;;;;;44.72;28.10;;;13.80;99.90;;;;;;5100514;28;20043;-72
2022/11/07 12:33:07;;;;;;;48.25;29.63;;;13.80;99.90;;;;;;5101976;28;20039;-73
2022/11/07 12:35:41;;;;;;;48.78;30.35;;;13.70;99.90;;;;;;5110069;28;20073;-72
2022/11/07 12:38:44;;;;;;;62.92;40.72;;;13.60;99.90;;;;;;5101726;28;20032;-71
2022/11/07 12:41:19;;;;;;;56.97;35.45;;;13.60;99.90;;;;;;5099050;28;20104;-72
2022/11/07 12:43:58;;;;;;;46.88;30.40;;;13.50;99.90;;;;;;5079637;28;20148;-72
2022/11/07 12:46:35;;;;;;;41.90;27.38;;;13.50;99.90;;;;;;5104129;28;20521;-72
2022/11/07 12:49:27;;;;;;;39.35;26.83;;;13.40;99.90;;;;;;5106372;28;20082;-73
2022/11/07 12:52:03;;;;;;;44.67;27.60;;;13.30;99.90;;;;;;5103273;28;20049;-72